sensor_id;sensor_type;location;lat;lon;timestamp;P1;durP1;ratioP1;P2;durP2;ratioP2
73331;SDS011;61560;33.718;73.040;2023-05-29T00:01:03;307.70;;;121.63;;
73331;SDS011;61560;33.718;73.040;2023-05-29T00:03:33;135.30;;;73.68;;
73331;SDS011;61560;33.718;73.040;2023-05-29T00:06:01;109.20;;;62.72;;
73331;SDS011;61560;33.718;73.040;2023-05-29T00:08:28;115.00;;;66.57;;
73331;SDS011;61560;33.718;73.040;2023-05-29T00:10:56;291.33;;;118.95;;
73331;SDS011;61560;33.718;73.040;2023-05-29T00:13:23;311.83;;;124.00;;
73331;SDS011;61560;33.718;73.040;2023-05-29T00:15:50;252.15;;;109.45;;
73331;SDS011;61560;33.718;73.040;2023-05-29T00:18:17;304.27;;;121.18;;
73331;SDS011;61560;33.718;73.040;2023-05-29T00:20:44;242.52;;;107.05;;
73331;SDS011;61560;33.718;73.040;2023-05-29T00:23:11;233.55;;;104.75;;
73331;SDS011;61560;33.718;73.040;2023-05-29T00:25:38;173.75;;;87.18;;
73331;SDS011;61560;33.718;73.040;2023-05-29T00:28:07;308.42;;;122.32;;
73331;SDS011;61560;33.718;73.040;2023-05-29T00:30:35;172.82;;;83.70;;
73331;SDS011;61560;33.718;73.040;2023-05-29T00:33:02;209.38;;;99.25;;
73331;SDS011;61560;33.718;73.040;2023-05-29T00:35:29;209.75;;;99.53;;
73331;SDS011;61560;33.718;73.040;2023-05-29T00:37:57;232.60;;;105.55;;
73331;SDS011;61560;33.718;73.040;2023-05-29T00:40:24;248.32;;;109.60;;
73331;SDS011;61560;33.718;73.040;2023-05-29T00:42:52;233.55;;;104.50;;
73331;SDS011;61560;33.718;73.040;2023-05-29T00:45:19;243.15;;;107.50;;
73331;SDS011;61560;33.718;73.040;2023-05-29T00:47:46;106.93;;;56.75;;
73331;SDS011;61560;33.718;73.040;2023-05-29T00:50:13;216.10;;;100.75;;
73331;SDS011;61560;33.718;73.040;2023-05-29T00:52:41;182.73;;;89.20;;
73331;SDS011;61560;33.718;73.040;2023-05-29T00:55:09;119.22;;;66.57;;
73331;SDS011;61560;33.718;73.040;2023-05-29T00:57:37;146.80;;;77.22;;
73331;SDS011;61560;33.718;73.040;2023-05-29T01:00:05;144.25;;;73.68;;
73331;SDS011;61560;33.718;73.040;2023-05-29T01:02:38;118.38;;;64.90;;
73331;SDS011;61560;33.718;73.040;2023-05-29T01:05:12;178.20;;;86.70;;
73331;SDS011;61560;33.718;73.040;2023-05-29T01:07:43;179.85;;;88.15;;
73331;SDS011;61560;33.718;73.040;2023-05-29T01:10:11;125.20;;;67.18;;
73331;SDS011;61560;33.718;73.040;2023-05-29T01:12:46;321.27;;;127.00;;
73331;SDS011;61560;33.718;73.040;2023-05-29T01:15:36;380.38;;;139.15;;
73331;SDS011;61560;33.718;73.040;2023-05-29T01:18:11;350.92;;;133.63;;
73331;SDS011;61560;33.718;73.040;2023-05-29T01:21:08;309.80;;;124.47;;
73331;SDS011;61560;33.718;73.040;2023-05-29T01:24:10;303.38;;;122.90;;
73331;SDS011;61560;33.718;73.040;2023-05-29T01:27:07;122.32;;;65.63;;
73331;SDS011;61560;33.718;73.040;2023-05-29T01:29:37;152.15;;;82.43;;
73331;SDS011;61560;33.718;73.040;2023-05-29T01:32:06;181.13;;;92.00;;
73331;SDS011;61560;33.718;73.040;2023-05-29T01:34:34;75.40;;;40.28;;
73331;SDS011;61560;33.718;73.040;2023-05-29T01:37:01;65.68;;;30.90;;
73331;SDS011;61560;33.718;73.040;2023-05-29T01:39:30;85.80;;;45.45;;
73331;SDS011;61560;33.718;73.040;2023-05-29T01:41:59;105.72;;;57.75;;
73331;SDS011;61560;33.718;73.040;2023-05-29T01:44:28;124.93;;;68.90;;
73331;SDS011;61560;33.718;73.040;2023-05-29T01:46:56;165.32;;;86.13;;
73331;SDS011;61560;33.718;73.040;2023-05-29T01:49:23;199.48;;;98.90;;
73331;SDS011;61560;33.718;73.040;2023-05-29T01:51:53;152.98;;;77.75;;
73331;SDS011;61560;33.718;73.040;2023-05-29T01:54:20;230.60;;;108.55;;
73331;SDS011;61560;33.718;73.040;2023-05-29T01:56:47;271.13;;;117.78;;
73331;SDS011;61560;33.718;73.040;2023-05-29T01:59:15;218.90;;;101.50;;
73331;SDS011;61560;33.718;73.040;2023-05-29T02:01:43;151.90;;;76.93;;
73331;SDS011;61560;33.718;73.040;2023-05-29T02:04:10;60.97;;;24.45;;
73331;SDS011;61560;33.718;73.040;2023-05-29T02:06:37;54.30;;;24.83;;
73331;SDS011;61560;33.718;73.040;2023-05-29T02:09:04;57.42;;;26.60;;
73331;SDS011;61560;33.718;73.040;2023-05-29T02:11:33;62.92;;;27.73;;
73331;SDS011;61560;33.718;73.040;2023-05-29T02:14:00;74.45;;;37.15;;
73331;SDS011;61560;33.718;73.040;2023-05-29T02:16:28;78.20;;;37.80;;
73331;SDS011;61560;33.718;73.040;2023-05-29T02:18:55;83.28;;;42.42;;
73331;SDS011;61560;33.718;73.040;2023-05-29T02:21:23;54.10;;;24.23;;
73331;SDS011;61560;33.718;73.040;2023-05-29T02:23:50;133.52;;;77.20;;
73331;SDS011;61560;33.718;73.040;2023-05-29T02:26:17;161.77;;;84.88;;
73331;SDS011;61560;33.718;73.040;2023-05-29T02:28:44;156.10;;;84.22;;
73331;SDS011;61560;33.718;73.040;2023-05-29T02:31:11;110.47;;;57.30;;
73331;SDS011;61560;33.718;73.040;2023-05-29T02:33:38;136.02;;;78.78;;
73331;SDS011;61560;33.718;73.040;2023-05-29T02:36:05;48.42;;;24.15;;
73331;SDS011;61560;33.718;73.040;2023-05-29T02:38:36;43.22;;;16.73;;
73331;SDS011;61560;33.718;73.040;2023-05-29T02:41:03;46.40;;;20.23;;
73331;SDS011;61560;33.718;73.040;2023-05-29T02:43:30;63.15;;;29.92;;
73331;SDS011;61560;33.718;73.040;2023-05-29T02:45:57;83.60;;;42.30;;
73331;SDS011;61560;33.718;73.040;2023-05-29T02:48:24;42.47;;;20.38;;
73331;SDS011;61560;33.718;73.040;2023-05-29T02:50:51;41.08;;;18.98;;
73331;SDS011;61560;33.718;73.040;2023-05-29T02:53:19;43.33;;;22.70;;
73331;SDS011;61560;33.718;73.040;2023-05-29T02:55:46;71.20;;;38.45;;
73331;SDS011;61560;33.718;73.040;2023-05-29T02:58:14;49.83;;;27.23;;
73331;SDS011;61560;33.718;73.040;2023-05-29T03:00:42;155.23;;;80.88;;
73331;SDS011;61560;33.718;73.040;2023-05-29T03:03:09;60.53;;;31.20;;
73331;SDS011;61560;33.718;73.040;2023-05-29T03:05:38;73.88;;;37.42;;
73331;SDS011;61560;33.718;73.040;2023-05-29T03:08:05;107.95;;;56.28;;
73331;SDS011;61560;33.718;73.040;2023-05-29T03:10:32;360.45;;;140.57;;
73331;SDS011;61560;33.718;73.040;2023-05-29T03:12:59;104.53;;;43.42;;
73331;SDS011;61560;33.718;73.040;2023-05-29T03:15:26;62.33;;;29.50;;
73331;SDS011;61560;33.718;73.040;2023-05-29T03:17:53;54.60;;;24.23;;
73331;SDS011;61560;33.718;73.040;2023-05-29T03:20:25;201.40;;;87.43;;
73331;SDS011;61560;33.718;73.040;2023-05-29T03:22:56;64.97;;;29.90;;
73331;SDS011;61560;33.718;73.040;2023-05-29T03:25:23;34.83;;;17.65;;
73331;SDS011;61560;33.718;73.040;2023-05-29T03:27:50;35.63;;;15.90;;
73331;SDS011;61560;33.718;73.040;2023-05-29T03:30:19;36.65;;;14.68;;
73331;SDS011;61560;33.718;73.040;2023-05-29T03:32:48;30.35;;;14.38;;
73331;SDS011;61560;33.718;73.040;2023-05-29T03:35:18;37.55;;;16.75;;
73331;SDS011;61560;33.718;73.040;2023-05-29T03:37:46;27.77;;;12.40;;
73331;SDS011;61560;33.718;73.040;2023-05-29T03:40:13;27.27;;;14.15;;
73331;SDS011;61560;33.718;73.040;2023-05-29T03:42:42;31.58;;;14.45;;
73331;SDS011;61560;33.718;73.040;2023-05-29T03:45:09;38.92;;;17.05;;
73331;SDS011;61560;33.718;73.040;2023-05-29T03:50:06;38.75;;;17.88;;
73331;SDS011;61560;33.718;73.040;2023-05-29T03:52:35;38.88;;;18.92;;
73331;SDS011;61560;33.718;73.040;2023-05-29T03:55:05;38.72;;;18.33;;
73331;SDS011;61560;33.718;73.040;2023-05-29T03:57:35;49.08;;;22.70;;
73331;SDS011;61560;33.718;73.040;2023-05-29T04:00:03;28.58;;;13.70;;
73331;SDS011;61560;33.718;73.040;2023-05-29T04:02:38;27.20;;;13.35;;
73331;SDS011;61560;33.718;73.040;2023-05-29T04:05:07;27.60;;;13.07;;
73331;SDS011;61560;33.718;73.040;2023-05-29T04:07:39;30.27;;;13.65;;
73331;SDS011;61560;33.718;73.040;2023-05-29T04:10:08;26.80;;;13.07;;
73331;SDS011;61560;33.718;73.040;2023-05-29T04:12:35;30.17;;;15.15;;
73331;SDS011;61560;33.718;73.040;2023-05-29T04:15:02;34.40;;;13.73;;
73331;SDS011;61560;33.718;73.040;2023-05-29T04:17:29;22.50;;;12.32;;
73331;SDS011;61560;33.718;73.040;2023-05-29T04:19:57;25.92;;;12.43;;
73331;SDS011;61560;33.718;73.040;2023-05-29T04:22:28;29.08;;;13.55;;
73331;SDS011;61560;33.718;73.040;2023-05-29T04:24:55;26.73;;;13.02;;
73331;SDS011;61560;33.718;73.040;2023-05-29T04:27:22;36.65;;;15.05;;
73331;SDS011;61560;33.718;73.040;2023-05-29T04:29:49;30.50;;;15.10;;
73331;SDS011;61560;33.718;73.040;2023-05-29T04:32:16;40.70;;;17.02;;
73331;SDS011;61560;33.718;73.040;2023-05-29T04:34:44;39.88;;;15.20;;
73331;SDS011;61560;33.718;73.040;2023-05-29T04:37:15;26.90;;;13.65;;
73331;SDS011;61560;33.718;73.040;2023-05-29T04:39:42;29.02;;;13.70;;
73331;SDS011;61560;33.718;73.040;2023-05-29T04:42:12;25.27;;;13.13;;
73331;SDS011;61560;33.718;73.040;2023-05-29T04:44:40;25.73;;;13.10;;
73331;SDS011;61560;33.718;73.040;2023-05-29T04:47:09;26.45;;;14.38;;
73331;SDS011;61560;33.718;73.040;2023-05-29T04:49:39;27.23;;;15.13;;
73331;SDS011;61560;33.718;73.040;2023-05-29T04:52:06;27.48;;;15.45;;
73331;SDS011;61560;33.718;73.040;2023-05-29T04:54:34;31.13;;;14.15;;
73331;SDS011;61560;33.718;73.040;2023-05-29T04:57:01;29.88;;;15.55;;
73331;SDS011;61560;33.718;73.040;2023-05-29T04:59:32;52.78;;;19.67;;
73331;SDS011;61560;33.718;73.040;2023-05-29T05:02:00;31.48;;;15.70;;
73331;SDS011;61560;33.718;73.040;2023-05-29T05:04:27;24.48;;;13.75;;
73331;SDS011;61560;33.718;73.040;2023-05-29T05:06:55;26.05;;;15.02;;
73331;SDS011;61560;33.718;73.040;2023-05-29T05:09:23;26.83;;;14.40;;
73331;SDS011;61560;33.718;73.040;2023-05-29T05:11:53;31.25;;;14.98;;
73331;SDS011;61560;33.718;73.040;2023-05-29T05:14:22;30.52;;;15.55;;
73331;SDS011;61560;33.718;73.040;2023-05-29T05:16:49;29.13;;;15.15;;
73331;SDS011;61560;33.718;73.040;2023-05-29T05:19:16;37.58;;;18.10;;
73331;SDS011;61560;33.718;73.040;2023-05-29T05:21:43;41.83;;;18.38;;
73331;SDS011;61560;33.718;73.040;2023-05-29T05:24:11;34.33;;;17.75;;
73331;SDS011;61560;33.718;73.040;2023-05-29T05:26:40;52.58;;;21.80;;
73331;SDS011;61560;33.718;73.040;2023-05-29T05:29:06;47.38;;;22.15;;
73331;SDS011;61560;33.718;73.040;2023-05-29T05:31:37;32.27;;;16.47;;
73331;SDS011;61560;33.718;73.040;2023-05-29T05:34:04;42.13;;;18.42;;
73331;SDS011;61560;33.718;73.040;2023-05-29T05:36:32;39.05;;;18.98;;
73331;SDS011;61560;33.718;73.040;2023-05-29T05:39:07;47.33;;;18.75;;
73331;SDS011;61560;33.718;73.040;2023-05-29T05:41:34;44.35;;;17.50;;
73331;SDS011;61560;33.718;73.040;2023-05-29T05:44:01;36.13;;;17.45;;
73331;SDS011;61560;33.718;73.040;2023-05-29T05:46:37;47.65;;;18.50;;
73331;SDS011;61560;33.718;73.040;2023-05-29T05:49:04;33.75;;;17.88;;
73331;SDS011;61560;33.718;73.040;2023-05-29T05:51:31;47.50;;;20.48;;
73331;SDS011;61560;33.718;73.040;2023-05-29T05:53:58;46.22;;;20.13;;
73331;SDS011;61560;33.718;73.040;2023-05-29T05:56:27;54.00;;;17.60;;
73331;SDS011;61560;33.718;73.040;2023-05-29T05:58:54;39.45;;;19.15;;
73331;SDS011;61560;33.718;73.040;2023-05-29T06:01:21;50.25;;;17.33;;
73331;SDS011;61560;33.718;73.040;2023-05-29T06:03:50;41.45;;;17.73;;
73331;SDS011;61560;33.718;73.040;2023-05-29T06:06:17;46.47;;;22.83;;
73331;SDS011;61560;33.718;73.040;2023-05-29T06:08:44;41.05;;;18.20;;
73331;SDS011;61560;33.718;73.040;2023-05-29T06:11:12;33.25;;;17.33;;
73331;SDS011;61560;33.718;73.040;2023-05-29T06:13:42;37.80;;;17.27;;
73331;SDS011;61560;33.718;73.040;2023-05-29T06:16:16;43.38;;;20.98;;
73331;SDS011;61560;33.718;73.040;2023-05-29T06:18:45;40.92;;;17.85;;
73331;SDS011;61560;33.718;73.040;2023-05-29T06:21:12;35.92;;;17.98;;
73331;SDS011;61560;33.718;73.040;2023-05-29T06:23:46;48.20;;;20.73;;
73331;SDS011;61560;33.718;73.040;2023-05-29T06:26:14;50.05;;;21.17;;
73331;SDS011;61560;33.718;73.040;2023-05-29T06:28:41;68.30;;;20.80;;
73331;SDS011;61560;33.718;73.040;2023-05-29T06:31:08;63.47;;;23.83;;
73331;SDS011;61560;33.718;73.040;2023-05-29T06:33:36;72.10;;;24.98;;
73331;SDS011;61560;33.718;73.040;2023-05-29T06:36:05;60.83;;;27.23;;
73331;SDS011;61560;33.718;73.040;2023-05-29T06:38:34;46.78;;;21.08;;
73331;SDS011;61560;33.718;73.040;2023-05-29T06:41:04;47.70;;;24.85;;
73331;SDS011;61560;33.718;73.040;2023-05-29T06:43:33;51.45;;;25.08;;
73331;SDS011;61560;33.718;73.040;2023-05-29T06:46:02;53.35;;;23.25;;
73331;SDS011;61560;33.718;73.040;2023-05-29T06:48:32;54.17;;;20.90;;
73331;SDS011;61560;33.718;73.040;2023-05-29T06:54:00;52.15;;;23.13;;
73331;SDS011;61560;33.718;73.040;2023-05-29T06:56:28;51.08;;;23.30;;
73331;SDS011;61560;33.718;73.040;2023-05-29T06:58:56;56.72;;;20.77;;
73331;SDS011;61560;33.718;73.040;2023-05-29T07:04:26;45.78;;;18.77;;
73331;SDS011;61560;33.718;73.040;2023-05-29T07:06:53;39.03;;;16.52;;
73331;SDS011;61560;33.718;73.040;2023-05-29T07:09:20;30.98;;;14.10;;
73331;SDS011;61560;33.718;73.040;2023-05-29T07:11:47;30.63;;;14.35;;
73331;SDS011;61560;33.718;73.040;2023-05-29T07:14:14;34.97;;;14.70;;
73331;SDS011;61560;33.718;73.040;2023-05-29T07:16:41;30.40;;;14.68;;
73331;SDS011;61560;33.718;73.040;2023-05-29T07:19:09;34.28;;;16.08;;
73331;SDS011;61560;33.718;73.040;2023-05-29T07:21:37;54.30;;;20.90;;
73331;SDS011;61560;33.718;73.040;2023-05-29T07:24:05;40.25;;;21.10;;
73331;SDS011;61560;33.718;73.040;2023-05-29T07:26:34;35.35;;;16.98;;
73331;SDS011;61560;33.718;73.040;2023-05-29T07:29:02;34.65;;;17.40;;
73331;SDS011;61560;33.718;73.040;2023-05-29T07:31:29;39.88;;;18.33;;
73331;SDS011;61560;33.718;73.040;2023-05-29T07:33:57;41.58;;;19.23;;
73331;SDS011;61560;33.718;73.040;2023-05-29T07:36:29;32.83;;;14.90;;
73331;SDS011;61560;33.718;73.040;2023-05-29T07:38:59;43.78;;;20.50;;
73331;SDS011;61560;33.718;73.040;2023-05-29T07:41:26;38.17;;;19.50;;
73331;SDS011;61560;33.718;73.040;2023-05-29T07:43:54;38.33;;;18.77;;
73331;SDS011;61560;33.718;73.040;2023-05-29T07:46:23;38.40;;;18.73;;
73331;SDS011;61560;33.718;73.040;2023-05-29T07:48:57;43.08;;;22.35;;
73331;SDS011;61560;33.718;73.040;2023-05-29T07:51:24;33.55;;;15.98;;
73331;SDS011;61560;33.718;73.040;2023-05-29T07:53:51;59.90;;;24.75;;
73331;SDS011;61560;33.718;73.040;2023-05-29T07:56:19;52.13;;;25.63;;
73331;SDS011;61560;33.718;73.040;2023-05-29T07:58:47;64.60;;;34.20;;
73331;SDS011;61560;33.718;73.040;2023-05-29T08:01:14;48.30;;;24.98;;
73331;SDS011;61560;33.718;73.040;2023-05-29T08:03:41;51.50;;;28.23;;
73331;SDS011;61560;33.718;73.040;2023-05-29T08:06:24;132.30;;;73.93;;
73331;SDS011;61560;33.718;73.040;2023-05-29T08:08:51;101.85;;;55.08;;
73331;SDS011;61560;33.718;73.040;2023-05-29T08:11:21;59.45;;;34.83;;
73331;SDS011;61560;33.718;73.040;2023-05-29T08:13:48;53.60;;;29.13;;
73331;SDS011;61560;33.718;73.040;2023-05-29T08:16:16;37.90;;;20.48;;
73331;SDS011;61560;33.718;73.040;2023-05-29T08:18:43;77.07;;;38.95;;
73331;SDS011;61560;33.718;73.040;2023-05-29T08:21:10;60.00;;;29.00;;
73331;SDS011;61560;33.718;73.040;2023-05-29T08:23:38;69.75;;;33.38;;
73331;SDS011;61560;33.718;73.040;2023-05-29T08:26:05;47.53;;;20.40;;
73331;SDS011;61560;33.718;73.040;2023-05-29T08:28:32;40.83;;;18.35;;
73331;SDS011;61560;33.718;73.040;2023-05-29T08:30:59;47.17;;;19.08;;
73331;SDS011;61560;33.718;73.040;2023-05-29T08:33:27;66.80;;;33.97;;
73331;SDS011;61560;33.718;73.040;2023-05-29T08:35:56;71.22;;;42.97;;
73331;SDS011;61560;33.718;73.040;2023-05-29T08:38:24;55.22;;;28.85;;
73331;SDS011;61560;33.718;73.040;2023-05-29T08:40:56;92.47;;;47.95;;
73331;SDS011;61560;33.718;73.040;2023-05-29T08:43:35;58.70;;;26.23;;
73331;SDS011;61560;33.718;73.040;2023-05-29T08:46:03;58.70;;;29.05;;
73331;SDS011;61560;33.718;73.040;2023-05-29T08:48:32;44.63;;;23.27;;
73331;SDS011;61560;33.718;73.040;2023-05-29T08:51:04;54.00;;;28.45;;
73331;SDS011;61560;33.718;73.040;2023-05-29T08:53:34;52.13;;;26.13;;
73331;SDS011;61560;33.718;73.040;2023-05-29T08:56:01;51.85;;;27.50;;
73331;SDS011;61560;33.718;73.040;2023-05-29T08:58:28;51.10;;;28.40;;
73331;SDS011;61560;33.718;73.040;2023-05-29T09:00:56;67.95;;;42.58;;
73331;SDS011;61560;33.718;73.040;2023-05-29T09:03:23;118.10;;;68.25;;
73331;SDS011;61560;33.718;73.040;2023-05-29T09:05:50;134.85;;;73.43;;
73331;SDS011;61560;33.718;73.040;2023-05-29T09:08:18;101.15;;;55.08;;
73331;SDS011;61560;33.718;73.040;2023-05-29T09:10:45;89.15;;;49.30;;
73331;SDS011;61560;33.718;73.040;2023-05-29T09:13:12;86.47;;;46.65;;
73331;SDS011;61560;33.718;73.040;2023-05-29T09:15:40;64.70;;;34.90;;
73331;SDS011;61560;33.718;73.040;2023-05-29T09:18:09;95.55;;;53.60;;
73331;SDS011;61560;33.718;73.040;2023-05-29T09:20:36;88.60;;;47.80;;
73331;SDS011;61560;33.718;73.040;2023-05-29T09:23:05;71.32;;;41.22;;
73331;SDS011;61560;33.718;73.040;2023-05-29T09:25:34;60.65;;;32.50;;
73331;SDS011;61560;33.718;73.040;2023-05-29T09:28:06;57.15;;;34.85;;
73331;SDS011;61560;33.718;73.040;2023-05-29T09:30:39;74.15;;;43.42;;
73331;SDS011;61560;33.718;73.040;2023-05-29T09:33:11;79.55;;;46.85;;
73331;SDS011;61560;33.718;73.040;2023-05-29T09:35:40;81.30;;;44.20;;
73331;SDS011;61560;33.718;73.040;2023-05-29T09:38:08;64.55;;;37.00;;
73331;SDS011;61560;33.718;73.040;2023-05-29T09:40:37;65.38;;;39.83;;
73331;SDS011;61560;33.718;73.040;2023-05-29T09:43:05;72.85;;;44.25;;
73331;SDS011;61560;33.718;73.040;2023-05-29T09:48:07;102.22;;;60.22;;
73331;SDS011;61560;33.718;73.040;2023-05-29T09:50:44;91.82;;;54.70;;
73331;SDS011;61560;33.718;73.040;2023-05-29T09:53:23;99.45;;;61.22;;
73331;SDS011;61560;33.718;73.040;2023-05-29T09:55:54;128.07;;;70.80;;
73331;SDS011;61560;33.718;73.040;2023-05-29T09:58:22;135.40;;;73.88;;
73331;SDS011;61560;33.718;73.040;2023-05-29T10:00:50;126.57;;;72.45;;
73331;SDS011;61560;33.718;73.040;2023-05-29T10:03:18;142.98;;;76.82;;
73331;SDS011;61560;33.718;73.040;2023-05-29T10:05:48;152.63;;;80.38;;
73331;SDS011;61560;33.718;73.040;2023-05-29T10:08:19;189.73;;;92.05;;
73331;SDS011;61560;33.718;73.040;2023-05-29T10:10:52;143.07;;;75.97;;
73331;SDS011;61560;33.718;73.040;2023-05-29T10:13:25;112.72;;;66.95;;
73331;SDS011;61560;33.718;73.040;2023-05-29T10:16:07;121.07;;;65.53;;
73331;SDS011;61560;33.718;73.040;2023-05-29T10:18:38;96.93;;;59.67;;
73331;SDS011;61560;33.718;73.040;2023-05-29T10:21:09;103.20;;;58.60;;
73331;SDS011;61560;33.718;73.040;2023-05-29T10:23:39;82.32;;;49.33;;
73331;SDS011;61560;33.718;73.040;2023-05-29T10:26:14;95.03;;;56.80;;
73331;SDS011;61560;33.718;73.040;2023-05-29T10:29:08;102.07;;;61.13;;
73331;SDS011;61560;33.718;73.040;2023-05-29T10:34:37;179.45;;;87.80;;
73331;SDS011;61560;33.718;73.040;2023-05-29T10:40:04;206.63;;;96.07;;
73331;SDS011;61560;33.718;73.040;2023-05-29T10:42:40;196.85;;;93.82;;
73331;SDS011;61560;33.718;73.040;2023-05-29T10:45:56;183.18;;;89.78;;
73331;SDS011;61560;33.718;73.040;2023-05-29T10:48:41;239.23;;;104.43;;
73331;SDS011;61560;33.718;73.040;2023-05-29T10:50:55;258.73;;;108.65;;
73331;SDS011;61560;33.718;73.040;2023-05-29T10:53:23;254.63;;;108.22;;
73331;SDS011;61560;33.718;73.040;2023-05-29T10:55:54;246.45;;;106.18;;
73331;SDS011;61560;33.718;73.040;2023-05-29T10:58:22;261.67;;;109.57;;
73331;SDS011;61560;33.718;73.040;2023-05-29T11:00:53;224.80;;;99.28;;
73331;SDS011;61560;33.718;73.040;2023-05-29T11:03:22;149.95;;;77.05;;
73331;SDS011;61560;33.718;73.040;2023-05-29T11:06:01;158.45;;;81.72;;
73331;SDS011;61560;33.718;73.040;2023-05-29T11:11:12;177.60;;;88.00;;
73331;SDS011;61560;33.718;73.040;2023-05-29T11:13:56;182.40;;;88.82;;
73331;SDS011;61560;33.718;73.040;2023-05-29T11:18:56;194.75;;;92.55;;
73331;SDS011;61560;33.718;73.040;2023-05-29T11:24:05;184.45;;;89.45;;
73331;SDS011;61560;33.718;73.040;2023-05-29T11:26:33;183.20;;;89.50;;
73331;SDS011;61560;33.718;73.040;2023-05-29T11:29:03;182.82;;;88.63;;
73331;SDS011;61560;33.718;73.040;2023-05-29T11:31:37;178.32;;;88.10;;
73331;SDS011;61560;33.718;73.040;2023-05-29T11:34:09;172.35;;;85.47;;
73331;SDS011;61560;33.718;73.040;2023-05-29T11:36:40;168.90;;;84.53;;
73331;SDS011;61560;33.718;73.040;2023-05-29T11:39:09;159.45;;;82.45;;
73331;SDS011;61560;33.718;73.040;2023-05-29T11:41:36;163.88;;;83.38;;
73331;SDS011;61560;33.718;73.040;2023-05-29T11:44:04;160.57;;;82.15;;
73331;SDS011;61560;33.718;73.040;2023-05-29T11:46:34;156.43;;;82.13;;
73331;SDS011;61560;33.718;73.040;2023-05-29T11:49:01;153.85;;;81.57;;
73331;SDS011;61560;33.718;73.040;2023-05-29T11:51:28;163.95;;;83.82;;
73331;SDS011;61560;33.718;73.040;2023-05-29T11:53:55;159.70;;;82.20;;
73331;SDS011;61560;33.718;73.040;2023-05-29T11:56:26;161.20;;;82.57;;
73331;SDS011;61560;33.718;73.040;2023-05-29T11:58:54;159.00;;;82.00;;
73331;SDS011;61560;33.718;73.040;2023-05-29T12:01:23;159.68;;;81.85;;
73331;SDS011;61560;33.718;73.040;2023-05-29T12:03:51;154.98;;;80.40;;
73331;SDS011;61560;33.718;73.040;2023-05-29T12:06:31;161.07;;;82.70;;
73331;SDS011;61560;33.718;73.040;2023-05-29T12:09:04;157.73;;;81.63;;
73331;SDS011;61560;33.718;73.040;2023-05-29T12:11:31;166.02;;;83.75;;
73331;SDS011;61560;33.718;73.040;2023-05-29T12:14:01;147.50;;;76.93;;
73331;SDS011;61560;33.718;73.040;2023-05-29T12:16:28;144.30;;;78.03;;
73331;SDS011;61560;33.718;73.040;2023-05-29T12:18:59;142.68;;;76.07;;
73331;SDS011;61560;33.718;73.040;2023-05-29T12:21:26;146.85;;;78.53;;
73331;SDS011;61560;33.718;73.040;2023-05-29T12:23:54;151.43;;;76.85;;
73331;SDS011;61560;33.718;73.040;2023-05-29T12:26:24;155.55;;;81.00;;
73331;SDS011;61560;33.718;73.040;2023-05-29T12:28:52;157.10;;;80.80;;
73331;SDS011;61560;33.718;73.040;2023-05-29T12:31:28;151.65;;;79.68;;
73331;SDS011;61560;33.718;73.040;2023-05-29T12:34:06;149.57;;;79.57;;
73331;SDS011;61560;33.718;73.040;2023-05-29T12:36:36;153.85;;;80.80;;
73331;SDS011;61560;33.718;73.040;2023-05-29T12:39:07;153.77;;;78.85;;
73331;SDS011;61560;33.718;73.040;2023-05-29T12:41:37;146.07;;;77.85;;
73331;SDS011;61560;33.718;73.040;2023-05-29T12:44:05;144.50;;;76.43;;
73331;SDS011;61560;33.718;73.040;2023-05-29T12:46:38;135.05;;;74.03;;
73331;SDS011;61560;33.718;73.040;2023-05-29T12:51:40;129.70;;;72.35;;
73331;SDS011;61560;33.718;73.040;2023-05-29T12:54:12;131.25;;;70.80;;
73331;SDS011;61560;33.718;73.040;2023-05-29T12:56:41;128.00;;;70.45;;
73331;SDS011;61560;33.718;73.040;2023-05-29T12:59:08;126.78;;;70.75;;
73331;SDS011;61560;33.718;73.040;2023-05-29T13:01:37;130.57;;;71.03;;
73331;SDS011;61560;33.718;73.040;2023-05-29T13:04:05;130.15;;;71.40;;
73331;SDS011;61560;33.718;73.040;2023-05-29T13:06:37;115.77;;;68.30;;
73331;SDS011;61560;33.718;73.040;2023-05-29T13:09:07;120.00;;;69.00;;
73331;SDS011;61560;33.718;73.040;2023-05-29T13:11:34;126.57;;;71.05;;
73331;SDS011;61560;33.718;73.040;2023-05-29T13:14:02;133.18;;;72.25;;
73331;SDS011;61560;33.718;73.040;2023-05-29T13:16:29;120.95;;;69.20;;
73331;SDS011;61560;33.718;73.040;2023-05-29T13:18:56;122.47;;;70.00;;
73331;SDS011;61560;33.718;73.040;2023-05-29T13:21:23;112.10;;;64.95;;
73331;SDS011;61560;33.718;73.040;2023-05-29T13:23:50;119.82;;;65.40;;
73331;SDS011;61560;33.718;73.040;2023-05-29T13:26:17;115.40;;;66.43;;
73331;SDS011;61560;33.718;73.040;2023-05-29T13:28:43;124.07;;;68.32;;
73331;SDS011;61560;33.718;73.040;2023-05-29T13:31:11;119.82;;;67.53;;
73331;SDS011;61560;33.718;73.040;2023-05-29T13:33:37;119.25;;;68.70;;
73331;SDS011;61560;33.718;73.040;2023-05-29T13:36:05;118.35;;;67.45;;
73331;SDS011;61560;33.718;73.040;2023-05-29T13:38:32;127.07;;;69.80;;
73331;SDS011;61560;33.718;73.040;2023-05-29T13:40:59;123.57;;;69.75;;
73331;SDS011;61560;33.718;73.040;2023-05-29T13:43:26;125.97;;;69.65;;
73331;SDS011;61560;33.718;73.040;2023-05-29T13:45:53;127.97;;;71.35;;
73331;SDS011;61560;33.718;73.040;2023-05-29T13:48:20;126.03;;;70.07;;
73331;SDS011;61560;33.718;73.040;2023-05-29T13:50:47;134.88;;;71.78;;
73331;SDS011;61560;33.718;73.040;2023-05-29T13:53:14;135.68;;;73.50;;
73331;SDS011;61560;33.718;73.040;2023-05-29T13:55:42;136.43;;;74.50;;
73331;SDS011;61560;33.718;73.040;2023-05-29T13:58:11;137.98;;;74.00;;
73331;SDS011;61560;33.718;73.040;2023-05-29T14:00:38;157.48;;;91.80;;
73331;SDS011;61560;33.718;73.040;2023-05-29T14:03:05;147.13;;;78.07;;
73331;SDS011;61560;33.718;73.040;2023-05-29T14:05:32;151.68;;;80.20;;
73331;SDS011;61560;33.718;73.040;2023-05-29T14:07:59;145.50;;;77.15;;
73331;SDS011;61560;33.718;73.040;2023-05-29T14:10:26;153.00;;;78.95;;
73331;SDS011;61560;33.718;73.040;2023-05-29T14:12:53;146.65;;;77.72;;
73331;SDS011;61560;33.718;73.040;2023-05-29T14:15:20;143.50;;;78.10;;
73331;SDS011;61560;33.718;73.040;2023-05-29T14:17:47;149.82;;;78.90;;
73331;SDS011;61560;33.718;73.040;2023-05-29T14:20:14;148.98;;;79.68;;
73331;SDS011;61560;33.718;73.040;2023-05-29T14:22:43;145.40;;;78.32;;
73331;SDS011;61560;33.718;73.040;2023-05-29T14:25:10;151.10;;;80.35;;
73331;SDS011;61560;33.718;73.040;2023-05-29T14:27:37;156.07;;;81.82;;
73331;SDS011;61560;33.718;73.040;2023-05-29T14:30:04;159.13;;;83.10;;
73331;SDS011;61560;33.718;73.040;2023-05-29T14:32:31;163.18;;;83.97;;
73331;SDS011;61560;33.718;73.040;2023-05-29T14:34:58;157.68;;;83.72;;
73331;SDS011;61560;33.718;73.040;2023-05-29T14:37:26;167.35;;;83.40;;
73331;SDS011;61560;33.718;73.040;2023-05-29T14:39:54;161.07;;;82.75;;